sensor_id;sensor_type;location;lat;lon;timestamp;pressure;altitude;pressure_sealevel;temperature;humidity
70046;BME280;57385;41.832;23.494;2022-12-16T00:00:17;91016.34;;;5.96;95.31
70046;BME280;57385;41.832;23.494;2022-12-16T00:01:38;91010.47;;;5.96;95.20
70046;BME280;57385;41.832;23.494;2022-12-16T00:02:59;91002.25;;;5.93;95.63
70046;BME280;57385;41.832;23.494;2022-12-16T00:04:23;91012.06;;;5.90;95.22
70046;BME280;57385;41.832;23.494;2022-12-16T00:05:44;91015.97;;;5.92;95.28
70046;BME280;57385;41.832;23.494;2022-12-16T00:07:05;91021.44;;;5.96;95.33
70046;BME280;57385;41.832;23.494;2022-12-16T00:08:25;91023.00;;;5.97;95.11
70046;BME280;57385;41.832;23.494;2022-12-16T00:09:46;91016.16;;;5.98;95.34
70046;BME280;57385;41.832;23.494;2022-12-16T00:11:08;91023.00;;;5.97;95.67
70046;BME280;57385;41.832;23.494;2022-12-16T00:12:29;91022.03;;;5.98;96.04
70046;BME280;57385;41.832;23.494;2022-12-16T00:13:49;91019.88;;;6.02;96.40
70046;BME280;57385;41.832;23.494;2022-12-16T00:15:11;91027.13;;;6.05;96.45
70046;BME280;57385;41.832;23.494;2022-12-16T00:16:32;91021.06;;;6.06;96.08
70046;BME280;57385;41.832;23.494;2022-12-16T00:17:53;91025.75;;;6.09;96.33
70046;BME280;57385;41.832;23.494;2022-12-16T00:19:14;91015.56;;;6.09;96.10
70046;BME280;57385;41.832;23.494;2022-12-16T00:20:35;91014.41;;;6.11;95.98
70046;BME280;57385;41.832;23.494;2022-12-16T00:21:56;91012.06;;;6.10;96.33
70046;BME280;57385;41.832;23.494;2022-12-16T00:23:17;91021.44;;;6.09;95.76
70046;BME280;57385;41.832;23.494;2022-12-16T00:24:38;91013.81;;;6.09;96.57
70046;BME280;57385;41.832;23.494;2022-12-16T00:25:58;91014.41;;;6.11;96.75
70046;BME280;57385;41.832;23.494;2022-12-16T00:27:19;91018.50;;;6.12;96.39
70046;BME280;57385;41.832;23.494;2022-12-16T00:28:40;91017.72;;;6.12;96.35
70046;BME280;57385;41.832;23.494;2022-12-16T00:30:03;91019.09;;;6.14;96.56
70046;BME280;57385;41.832;23.494;2022-12-16T00:31:25;91024.19;;;6.14;96.57
70046;BME280;57385;41.832;23.494;2022-12-16T00:32:48;91025.75;;;6.15;96.63
70046;BME280;57385;41.832;23.494;2022-12-16T00:34:10;91025.75;;;6.15;96.51
70046;BME280;57385;41.832;23.494;2022-12-16T00:35:31;91023.97;;;6.16;96.26
70046;BME280;57385;41.832;23.494;2022-12-16T00:36:52;91022.22;;;6.16;96.00
70046;BME280;57385;41.832;23.494;2022-12-16T00:38:13;91029.28;;;6.14;96.17
70046;BME280;57385;41.832;23.494;2022-12-16T00:39:34;91035.16;;;6.15;96.20
70046;BME280;57385;41.832;23.494;2022-12-16T00:40:55;91035.94;;;6.15;96.33
70046;BME280;57385;41.832;23.494;2022-12-16T00:42:15;91037.31;;;6.18;96.54
70046;BME280;57385;41.832;23.494;2022-12-16T00:43:36;91034.38;;;6.14;96.40
70046;BME280;57385;41.832;23.494;2022-12-16T00:44:57;91040.84;;;6.17;96.34
70046;BME280;57385;41.832;23.494;2022-12-16T00:46:17;91043.97;;;6.19;96.47
70046;BME280;57385;41.832;23.494;2022-12-16T00:47:38;91035.16;;;6.21;96.68
70046;BME280;57385;41.832;23.494;2022-12-16T00:49:03;91037.50;;;6.23;96.66
70046;BME280;57385;41.832;23.494;2022-12-16T00:50:24;91040.63;;;6.25;96.80
70046;BME280;57385;41.832;23.494;2022-12-16T00:51:45;91036.13;;;6.27;96.26
70046;BME280;57385;41.832;23.494;2022-12-16T00:53:06;91033.56;;;6.27;96.51
70046;BME280;57385;41.832;23.494;2022-12-16T00:54:28;91038.09;;;6.25;95.96
70046;BME280;57385;41.832;23.494;2022-12-16T00:55:48;91026.16;;;6.19;96.12
70046;BME280;57385;41.832;23.494;2022-12-16T00:57:10;91032.41;;;6.23;95.91
70046;BME280;57385;41.832;23.494;2022-12-16T00:58:30;91026.34;;;6.24;96.41
70046;BME280;57385;41.832;23.494;2022-12-16T00:59:51;91026.53;;;6.16;95.97
70046;BME280;57385;41.832;23.494;2022-12-16T01:01:12;91031.06;;;6.20;96.38
70046;BME280;57385;41.832;23.494;2022-12-16T01:02:33;91035.16;;;6.21;96.06
70046;BME280;57385;41.832;23.494;2022-12-16T01:03:55;91031.84;;;6.21;96.01
70046;BME280;57385;41.832;23.494;2022-12-16T01:05:22;91026.53;;;6.22;96.42
70046;BME280;57385;41.832;23.494;2022-12-16T01:06:46;91031.63;;;6.22;96.48
70046;BME280;57385;41.832;23.494;2022-12-16T01:08:07;91026.53;;;6.22;96.56
70046;BME280;57385;41.832;23.494;2022-12-16T01:09:27;91031.63;;;6.22;96.55
70046;BME280;57385;41.832;23.494;2022-12-16T01:10:48;91021.06;;;6.19;96.36
70046;BME280;57385;41.832;23.494;2022-12-16T01:12:09;91014.78;;;6.15;97.13
70046;BME280;57385;41.832;23.494;2022-12-16T01:13:31;91026.34;;;6.17;97.10
70046;BME280;57385;41.832;23.494;2022-12-16T01:14:52;91036.34;;;6.19;96.69
70046;BME280;57385;41.832;23.494;2022-12-16T01:16:14;91029.69;;;6.18;97.04
70046;BME280;57385;41.832;23.494;2022-12-16T01:17:35;91028.28;;;6.15;97.03
70046;BME280;57385;41.832;23.494;2022-12-16T01:18:56;91030.84;;;6.15;97.51
70046;BME280;57385;41.832;23.494;2022-12-16T01:20:17;91024.97;;;6.15;97.78
70046;BME280;57385;41.832;23.494;2022-12-16T01:21:38;91018.50;;;6.12;97.56
70046;BME280;57385;41.832;23.494;2022-12-16T01:22:59;91019.50;;;6.11;97.64
70046;BME280;57385;41.832;23.494;2022-12-16T01:24:20;91025.16;;;6.13;97.54
70046;BME280;57385;41.832;23.494;2022-12-16T01:25:41;91012.44;;;6.13;97.89
70046;BME280;57385;41.832;23.494;2022-12-16T01:27:01;91016.53;;;6.14;97.30
70046;BME280;57385;41.832;23.494;2022-12-16T01:28:22;91015.75;;;6.14;98.02
70046;BME280;57385;41.832;23.494;2022-12-16T01:29:43;91017.31;;;6.15;97.69
70046;BME280;57385;41.832;23.494;2022-12-16T01:31:04;91019.88;;;6.15;97.93
70046;BME280;57385;41.832;23.494;2022-12-16T01:32:25;91021.84;;;6.19;97.94
70046;BME280;57385;41.832;23.494;2022-12-16T01:33:46;91021.66;;;6.21;97.72
70046;BME280;57385;41.832;23.494;2022-12-16T01:35:07;91020.09;;;6.20;97.68
70046;BME280;57385;41.832;23.494;2022-12-16T01:36:48;91008.34;;;6.19;97.12
70046;BME280;57385;41.832;23.494;2022-12-16T01:38:10;91005.00;;;6.18;97.34
70046;BME280;57385;41.832;23.494;2022-12-16T01:39:31;91013.22;;;6.20;97.76
70046;BME280;57385;41.832;23.494;2022-12-16T01:40:51;91009.91;;;6.20;97.61
70046;BME280;57385;41.832;23.494;2022-12-16T01:42:16;91009.50;;;6.23;97.75
70046;BME280;57385;41.832;23.494;2022-12-16T01:43:38;91010.84;;;6.26;98.23
70046;BME280;57385;41.832;23.494;2022-12-16T01:46:38;91008.50;;;6.24;97.61
70046;BME280;57385;41.832;23.494;2022-12-16T01:48:02;91003.03;;;6.20;97.85
70046;BME280;57385;41.832;23.494;2022-12-16T01:50:49;90991.66;;;6.16;97.67
70046;BME280;57385;41.832;23.494;2022-12-16T01:52:21;91002.66;;;6.17;97.71
70046;BME280;57385;41.832;23.494;2022-12-16T01:53:43;91011.66;;;6.19;97.60
70046;BME280;57385;41.832;23.494;2022-12-16T01:55:07;91006.78;;;6.18;97.58
70046;BME280;57385;41.832;23.494;2022-12-16T01:56:29;91002.47;;;6.18;98.07
70046;BME280;57385;41.832;23.494;2022-12-16T01:57:53;90989.72;;;6.12;97.84
70046;BME280;57385;41.832;23.494;2022-12-16T01:59:14;90995.63;;;6.06;98.06
70046;BME280;57385;41.832;23.494;2022-12-16T02:00:36;90996.78;;;6.10;98.41
70046;BME280;57385;41.832;23.494;2022-12-16T02:01:58;91000.09;;;6.10;98.63
70046;BME280;57385;41.832;23.494;2022-12-16T02:03:19;90997.56;;;6.10;98.66
70046;BME280;57385;41.832;23.494;2022-12-16T02:04:41;91003.44;;;6.11;98.41
70046;BME280;57385;41.832;23.494;2022-12-16T02:06:20;91010.47;;;6.09;97.95
70046;BME280;57385;41.832;23.494;2022-12-16T02:07:42;91001.47;;;6.06;97.85
70046;BME280;57385;41.832;23.494;2022-12-16T02:09:04;90992.47;;;6.04;98.24
70046;BME280;57385;41.832;23.494;2022-12-16T02:12:22;91002.66;;;6.04;98.35
70046;BME280;57385;41.832;23.494;2022-12-16T02:15:23;91006.16;;;6.03;98.11
70046;BME280;57385;41.832;23.494;2022-12-16T02:16:53;91003.81;;;6.01;98.34
70046;BME280;57385;41.832;23.494;2022-12-16T02:18:22;90999.91;;;5.99;97.89
70046;BME280;57385;41.832;23.494;2022-12-16T02:22:58;91014.19;;;6.00;98.25
70046;BME280;57385;41.832;23.494;2022-12-16T02:24:42;91010.66;;;6.01;97.90
70046;BME280;57385;41.832;23.494;2022-12-16T02:27:50;91003.81;;;6.01;98.01
70046;BME280;57385;41.832;23.494;2022-12-16T02:29:36;91000.91;;;6.04;98.21
70046;BME280;57385;41.832;23.494;2022-12-16T02:31:41;91004.44;;;6.03;98.35
70046;BME280;57385;41.832;23.494;2022-12-16T02:40:19;90996.41;;;6.06;98.11
70046;BME280;57385;41.832;23.494;2022-12-16T02:41:54;90997.19;;;6.07;97.81
70046;BME280;57385;41.832;23.494;2022-12-16T02:43:25;90998.53;;;6.09;97.88
70046;BME280;57385;41.832;23.494;2022-12-16T02:45:09;90993.66;;;6.08;97.99
70046;BME280;57385;41.832;23.494;2022-12-16T02:46:32;90997.56;;;6.04;98.07
70046;BME280;57385;41.832;23.494;2022-12-16T02:47:56;90991.31;;;6.06;97.43
70046;BME280;57385;41.832;23.494;2022-12-16T02:50:43;90993.25;;;6.04;97.56
70046;BME280;57385;41.832;23.494;2022-12-16T02:52:05;90996.41;;;6.06;97.89
70046;BME280;57385;41.832;23.494;2022-12-16T02:53:26;91005.59;;;6.07;97.83
70046;BME280;57385;41.832;23.494;2022-12-16T02:54:49;91006.38;;;6.08;97.56
70046;BME280;57385;41.832;23.494;2022-12-16T02:56:28;90997.19;;;6.07;97.51
70046;BME280;57385;41.832;23.494;2022-12-16T02:59:26;91006.00;;;6.04;97.64
70046;BME280;57385;41.832;23.494;2022-12-16T03:01:04;91007.34;;;6.07;97.74
70046;BME280;57385;41.832;23.494;2022-12-16T03:05:50;90995.22;;;5.96;98.03
70046;BME280;57385;41.832;23.494;2022-12-16T03:07:13;90990.72;;;5.91;97.85
70046;BME280;57385;41.832;23.494;2022-12-16T03:08:36;91000.91;;;5.91;98.12
70046;BME280;57385;41.832;23.494;2022-12-16T03:09:58;91002.81;;;5.89;98.41
70046;BME280;57385;41.832;23.494;2022-12-16T03:11:20;90997.72;;;5.89;98.47
70046;BME280;57385;41.832;23.494;2022-12-16T03:12:44;91006.31;;;5.88;98.33
70046;BME280;57385;41.832;23.494;2022-12-16T03:14:05;91016.94;;;5.91;98.49
70046;BME280;57385;41.832;23.494;2022-12-16T03:15:28;91005.78;;;5.92;98.36
70046;BME280;57385;41.832;23.494;2022-12-16T03:16:51;91011.66;;;5.93;98.68
70046;BME280;57385;41.832;23.494;2022-12-16T03:18:13;91021.84;;;5.93;98.27
70046;BME280;57385;41.832;23.494;2022-12-16T03:19:35;91013.81;;;5.96;98.08
70046;BME280;57385;41.832;23.494;2022-12-16T03:21:01;91009.69;;;5.95;98.14
70046;BME280;57385;41.832;23.494;2022-12-16T03:22:24;91010.88;;;5.92;98.19
70046;BME280;57385;41.832;23.494;2022-12-16T03:23:55;91017.13;;;5.97;98.16
70046;BME280;57385;41.832;23.494;2022-12-16T03:25:18;91014.59;;;5.97;98.04
70046;BME280;57385;41.832;23.494;2022-12-16T03:32:00;91020.06;;;6.00;97.99
70046;BME280;57385;41.832;23.494;2022-12-16T03:32:59;91022.25;;;6.03;98.40
70046;BME280;57385;41.832;23.494;2022-12-16T03:34:32;91012.66;;;6.05;98.24
70046;BME280;57385;41.832;23.494;2022-12-16T03:36:04;91015.19;;;6.05;97.71
70046;BME280;57385;41.832;23.494;2022-12-16T03:37:28;91013.63;;;6.04;97.70
70046;BME280;57385;41.832;23.494;2022-12-16T03:38:51;91006.00;;;6.04;97.61
70046;BME280;57385;41.832;23.494;2022-12-16T03:40:13;91011.09;;;6.04;97.37
70046;BME280;57385;41.832;23.494;2022-12-16T03:41:34;91003.03;;;6.07;97.69
70046;BME280;57385;41.832;23.494;2022-12-16T03:42:56;91003.25;;;6.06;97.16
70046;BME280;57385;41.832;23.494;2022-12-16T03:44:18;91004.03;;;6.06;97.23
70046;BME280;57385;41.832;23.494;2022-12-16T03:45:40;91010.47;;;6.09;97.22
70046;BME280;57385;41.832;23.494;2022-12-16T03:47:02;91003.44;;;6.11;96.99
70046;BME280;57385;41.832;23.494;2022-12-16T03:48:24;90995.00;;;6.10;97.06
70046;BME280;57385;41.832;23.494;2022-12-16T03:49:45;90988.75;;;6.06;96.96
70046;BME280;57385;41.832;23.494;2022-12-16T03:51:05;90978.78;;;6.05;96.67
70046;BME280;57385;41.832;23.494;2022-12-16T03:52:26;90991.09;;;6.01;96.45
70046;BME280;57385;41.832;23.494;2022-12-16T03:53:47;90989.13;;;5.97;97.02
70046;BME280;57385;41.832;23.494;2022-12-16T03:55:07;90987.38;;;5.97;97.08
70046;BME280;57385;41.832;23.494;2022-12-16T03:56:28;90992.06;;;6.00;97.05
70046;BME280;57385;41.832;23.494;2022-12-16T03:57:50;90998.72;;;6.01;97.09
70046;BME280;57385;41.832;23.494;2022-12-16T03:59:11;90999.91;;;6.05;96.88
70046;BME280;57385;41.832;23.494;2022-12-16T04:00:31;90996.78;;;6.03;96.88
70046;BME280;57385;41.832;23.494;2022-12-16T04:01:52;90996.97;;;6.02;96.62
70046;BME280;57385;41.832;23.494;2022-12-16T04:03:13;90999.50;;;6.02;96.70
70046;BME280;57385;41.832;23.494;2022-12-16T04:04:35;90999.72;;;6.07;96.68
70046;BME280;57385;41.832;23.494;2022-12-16T04:05:55;91002.06;;;6.08;97.16
70046;BME280;57385;41.832;23.494;2022-12-16T04:07:16;91004.41;;;6.10;96.80
70046;BME280;57385;41.832;23.494;2022-12-16T04:08:40;91002.47;;;6.05;96.74
70046;BME280;57385;41.832;23.494;2022-12-16T04:10:01;91002.66;;;6.04;96.53
70046;BME280;57385;41.832;23.494;2022-12-16T04:11:22;91012.06;;;6.10;96.05
70046;BME280;57385;41.832;23.494;2022-12-16T04:13:01;91013.41;;;6.12;96.48
70046;BME280;57385;41.832;23.494;2022-12-16T04:14:40;91011.84;;;6.11;95.98
70046;BME280;57385;41.832;23.494;2022-12-16T04:16:19;91011.09;;;6.04;95.98
70046;BME280;57385;41.832;23.494;2022-12-16T04:18:12;91011.47;;;6.08;96.13
70046;BME280;57385;41.832;23.494;2022-12-16T04:19:52;91002.66;;;6.10;96.08
70046;BME280;57385;41.832;23.494;2022-12-16T04:21:31;91005.97;;;6.11;95.62
70046;BME280;57385;41.832;23.494;2022-12-16T04:23:15;91008.91;;;6.08;95.81
70046;BME280;57385;41.832;23.494;2022-12-16T04:24:55;91011.25;;;5.96;95.86
70046;BME280;57385;41.832;23.494;2022-12-16T04:26:17;91009.88;;;6.00;96.22
70046;BME280;57385;41.832;23.494;2022-12-16T04:27:38;91017.31;;;6.02;96.41
70046;BME280;57385;41.832;23.494;2022-12-16T04:28:59;91018.53;;;6.06;96.01
70046;BME280;57385;41.832;23.494;2022-12-16T04:30:20;91023.41;;;6.07;95.96
70046;BME280;57385;41.832;23.494;2022-12-16T04:31:41;91029.47;;;6.06;95.93
70046;BME280;57385;41.832;23.494;2022-12-16T04:33:03;91028.50;;;6.07;95.93
70046;BME280;57385;41.832;23.494;2022-12-16T04:34:44;91045.94;;;6.10;96.36
70046;BME280;57385;41.832;23.494;2022-12-16T04:36:05;91052.59;;;6.11;96.18
70046;BME280;57385;41.832;23.494;2022-12-16T04:37:45;91047.09;;;6.08;96.29
70046;BME280;57385;41.832;23.494;2022-12-16T04:39:24;91034.75;;;6.11;95.83
70046;BME280;57385;41.832;23.494;2022-12-16T04:41:04;91032.81;;;6.13;96.04
70046;BME280;57385;41.832;23.494;2022-12-16T04:42:43;91047.28;;;6.13;96.21
70046;BME280;57385;41.832;23.494;2022-12-16T04:44:23;91031.63;;;6.16;96.32
70046;BME280;57385;41.832;23.494;2022-12-16T04:46:02;91025.38;;;6.18;96.37
70046;BME280;57385;41.832;23.494;2022-12-16T04:47:42;91026.94;;;6.19;96.08
70046;BME280;57385;41.832;23.494;2022-12-16T04:49:21;91022.22;;;6.23;95.92
70046;BME280;57385;41.832;23.494;2022-12-16T04:51:00;91023.22;;;6.22;96.11
70046;BME280;57385;41.832;23.494;2022-12-16T04:52:40;91019.47;;;6.24;95.68
70046;BME280;57385;41.832;23.494;2022-12-16T04:54:19;91030.06;;;6.28;95.95
70046;BME280;57385;41.832;23.494;2022-12-16T04:55:59;91024.00;;;6.22;95.52
70046;BME280;57385;41.832;23.494;2022-12-16T04:57:38;91033.97;;;6.24;95.64
70046;BME280;57385;41.832;23.494;2022-12-16T04:59:17;91031.81;;;6.28;95.99
70046;BME280;57385;41.832;23.494;2022-12-16T05:00:57;91033.38;;;6.29;95.60
70046;BME280;57385;41.832;23.494;2022-12-16T05:02:37;91031.44;;;6.24;95.70
70046;BME280;57385;41.832;23.494;2022-12-16T05:04:17;91042.97;;;6.27;95.94
70046;BME280;57385;41.832;23.494;2022-12-16T05:05:56;91043.75;;;6.27;95.91
70046;BME280;57385;41.832;23.494;2022-12-16T05:07:36;91048.47;;;6.23;95.83
70046;BME280;57385;41.832;23.494;2022-12-16T05:09:15;91047.88;;;6.15;96.24
70046;BME280;57385;41.832;23.494;2022-12-16T05:10:54;91051.63;;;6.19;96.05
70046;BME280;57385;41.832;23.494;2022-12-16T05:12:34;91044.56;;;6.21;95.93
70046;BME280;57385;41.832;23.494;2022-12-16T05:14:13;91046.72;;;6.24;95.91
70046;BME280;57385;41.832;23.494;2022-12-16T05:15:52;91045.31;;;6.15;95.78
70046;BME280;57385;41.832;23.494;2022-12-16T05:17:31;91039.28;;;6.09;96.26
70046;BME280;57385;41.832;23.494;2022-12-16T05:19:11;91059.47;;;6.17;96.41
70046;BME280;57385;41.832;23.494;2022-12-16T05:20:51;91050.41;;;6.15;96.48
70046;BME280;57385;41.832;23.494;2022-12-16T05:22:31;91042.41;;;6.11;96.07
70046;BME280;57385;41.832;23.494;2022-12-16T05:24:10;91031.06;;;6.07;96.14
70046;BME280;57385;41.832;23.494;2022-12-16T05:25:50;91030.84;;;6.09;96.43
70046;BME280;57385;41.832;23.494;2022-12-16T05:27:29;91029.28;;;6.08;96.39
70046;BME280;57385;41.832;23.494;2022-12-16T05:29:09;91018.72;;;6.11;96.45
70046;BME280;57385;41.832;23.494;2022-12-16T05:30:48;91020.09;;;6.07;96.42
70046;BME280;57385;41.832;23.494;2022-12-16T05:32:28;91024.56;;;6.11;96.71
70046;BME280;57385;41.832;23.494;2022-12-16T05:34:07;91024.75;;;6.16;96.21
70046;BME280;57385;41.832;23.494;2022-12-16T05:35:47;91009.69;;;6.08;96.59
70046;BME280;57385;41.832;23.494;2022-12-16T05:37:26;91023.22;;;6.09;96.70
70046;BME280;57385;41.832;23.494;2022-12-16T05:39:05;91023.41;;;6.14;97.00
70046;BME280;57385;41.832;23.494;2022-12-16T05:40:45;91016.75;;;6.13;96.73
70046;BME280;57385;41.832;23.494;2022-12-16T05:42:25;91026.72;;;6.14;96.85
70046;BME280;57385;41.832;23.494;2022-12-16T05:44:04;91032.63;;;6.21;96.63
70046;BME280;57385;41.832;23.494;2022-12-16T05:45:43;91036.53;;;6.24;96.35
70046;BME280;57385;41.832;23.494;2022-12-16T05:47:23;91040.22;;;6.28;96.55
70046;BME280;57385;41.832;23.494;2022-12-16T05:49:02;91042.41;;;6.31;95.89
70046;BME280;57385;41.832;23.494;2022-12-16T05:50:42;91033.19;;;6.30;95.60
70046;BME280;57385;41.832;23.494;2022-12-16T05:52:21;91045.53;;;6.27;95.25
70046;BME280;57385;41.832;23.494;2022-12-16T05:54:01;91050.41;;;6.28;95.65
70046;BME280;57385;41.832;23.494;2022-12-16T05:55:40;91055.50;;;6.28;95.78
70046;BME280;57385;41.832;23.494;2022-12-16T05:57:19;91045.53;;;6.27;95.47
70046;BME280;57385;41.832;23.494;2022-12-16T05:58:59;91053.94;;;6.27;94.96
70046;BME280;57385;41.832;23.494;2022-12-16T06:00:39;91056.69;;;6.26;95.33
70046;BME280;57385;41.832;23.494;2022-12-16T06:02:18;91046.50;;;6.26;95.72
70046;BME280;57385;41.832;23.494;2022-12-16T06:04:00;91048.47;;;6.23;95.92
70046;BME280;57385;41.832;23.494;2022-12-16T06:05:39;91056.91;;;6.31;95.46
70046;BME280;57385;41.832;23.494;2022-12-16T06:07:19;91057.28;;;6.28;95.55
70046;BME280;57385;41.832;23.494;2022-12-16T06:08:59;91054.72;;;6.28;95.86
70046;BME280;57385;41.832;23.494;2022-12-16T06:10:38;91048.84;;;6.27;95.69
70046;BME280;57385;41.832;23.494;2022-12-16T06:12:18;91059.84;;;6.34;95.54
70046;BME280;57385;41.832;23.494;2022-12-16T06:13:57;91068.06;;;6.36;95.76
70046;BME280;57385;41.832;23.494;2022-12-16T06:15:36;91062.00;;;6.37;95.31
70046;BME280;57385;41.832;23.494;2022-12-16T06:17:15;91063.34;;;6.40;95.64
70046;BME280;57385;41.832;23.494;2022-12-16T06:18:55;91069.81;;;6.42;95.48
70046;BME280;57385;41.832;23.494;2022-12-16T06:20:34;91078.22;;;6.43;95.30
70046;BME280;57385;41.832;23.494;2022-12-16T06:22:14;91080.78;;;6.43;95.50
70046;BME280;57385;41.832;23.494;2022-12-16T06:23:54;91084.09;;;6.43;95.13
70046;BME280;57385;41.832;23.494;2022-12-16T06:25:34;91090.00;;;6.44;95.10
70046;BME280;57385;41.832;23.494;2022-12-16T06:27:13;91104.50;;;6.43;94.99
70046;BME280;57385;41.832;23.494;2022-12-16T06:28:53;91097.84;;;6.42;95.19
70046;BME280;57385;41.832;23.494;2022-12-16T06:30:32;91097.03;;;6.42;95.16
70046;BME280;57385;41.832;23.494;2022-12-16T06:32:11;91105.09;;;6.45;95.27
70046;BME280;57385;41.832;23.494;2022-12-16T06:33:51;91112.75;;;6.45;94.88
70046;BME280;57385;41.832;23.494;2022-12-16T06:35:30;91109.22;;;6.46;94.80
70046;BME280;57385;41.832;23.494;2022-12-16T06:37:09;91104.69;;;6.48;94.83
70046;BME280;57385;41.832;23.494;2022-12-16T06:38:49;91116.06;;;6.46;94.58
70046;BME280;57385;41.832;23.494;2022-12-16T06:40:28;91110.97;;;6.39;94.97
70046;BME280;57385;41.832;23.494;2022-12-16T06:42:08;91119.41;;;6.46;94.41
70046;BME280;57385;41.832;23.494;2022-12-16T06:43:47;91106.88;;;6.45;94.26
70046;BME280;57385;41.832;23.494;2022-12-16T06:45:26;91119.78;;;6.50;94.59
70046;BME280;57385;41.832;23.494;2022-12-16T06:47:06;91111.94;;;6.51;93.96
70046;BME280;57385;41.832;23.494;2022-12-16T06:48:45;91101.38;;;6.48;94.24
70046;BME280;57385;41.832;23.494;2022-12-16T06:50:25;91113.31;;;6.47;94.26
70046;BME280;57385;41.832;23.494;2022-12-16T06:52:05;91117.81;;;6.52;94.34
70046;BME280;57385;41.832;23.494;2022-12-16T06:53:44;91113.91;;;6.49;94.46
70046;BME280;57385;41.832;23.494;2022-12-16T06:55:24;91117.06;;;6.58;94.50
70046;BME280;57385;41.832;23.494;2022-12-16T06:57:03;91110.56;;;6.56;93.95
70046;BME280;57385;41.832;23.494;2022-12-16T06:58:43;91114.88;;;6.55;94.22
70046;BME280;57385;41.832;23.494;2022-12-16T07:00:23;91117.22;;;6.57;94.60
70046;BME280;57385;41.832;23.494;2022-12-16T07:02:03;91124.28;;;6.54;94.53
70046;BME280;57385;41.832;23.494;2022-12-16T07:03:59;91117.81;;;6.52;94.43
70046;BME280;57385;41.832;23.494;2022-12-16T07:05:38;91119.59;;;6.51;94.79
70046;BME280;57385;41.832;23.494;2022-12-16T07:07:17;91121.75;;;6.54;94.39
70046;BME280;57385;41.832;23.494;2022-12-16T07:08:57;91128.03;;;6.59;94.83
70046;BME280;57385;41.832;23.494;2022-12-16T07:10:36;91118.59;;;6.52;94.68
70046;BME280;57385;41.832;23.494;2022-12-16T07:12:33;91124.88;;;6.57;94.72
70046;BME280;57385;41.832;23.494;2022-12-16T07:14:12;91143.69;;;6.62;94.94
70046;BME280;57385;41.832;23.494;2022-12-16T07:15:52;91125.28;;;6.60;94.75
70046;BME280;57385;41.832;23.494;2022-12-16T07:17:31;91139.97;;;6.65;94.51
70046;BME280;57385;41.832;23.494;2022-12-16T07:19:11;91143.88;;;6.67;94.59
70046;BME280;57385;41.832;23.494;2022-12-16T07:20:51;91139.38;;;6.63;94.81
70046;BME280;57385;41.832;23.494;2022-12-16T07:22:30;91150.34;;;6.70;94.84
70046;BME280;57385;41.832;23.494;2022-12-16T07:24:20;91144.28;;;6.71;94.70
70046;BME280;57385;41.832;23.494;2022-12-16T07:26:00;91133.28;;;6.70;94.73
70046;BME280;57385;41.832;23.494;2022-12-16T07:27:39;91135.28;;;6.75;94.71
70046;BME280;57385;41.832;23.494;2022-12-16T07:29:23;91140.16;;;6.76;94.23
70046;BME280;57385;41.832;23.494;2022-12-16T07:31:02;91143.88;;;6.80;94.56
70046;BME280;57385;41.832;23.494;2022-12-16T07:32:42;91134.88;;;6.78;94.15
70046;BME280;57385;41.832;23.494;2022-12-16T07:34:21;91130.38;;;6.87;93.82
70046;BME280;57385;41.832;23.494;2022-12-16T07:36:06;91136.81;;;6.89;93.72
70046;BME280;57385;41.832;23.494;2022-12-16T07:37:45;91128.81;;;6.86;93.96
70046;BME280;57385;41.832;23.494;2022-12-16T07:39:25;91125.47;;;6.78;94.26
70046;BME280;57385;41.832;23.494;2022-12-16T07:41:12;91134.06;;;6.84;94.12
70046;BME280;57385;41.832;23.494;2022-12-16T07:42:51;91141.53;;;6.86;93.97
70046;BME280;57385;41.832;23.494;2022-12-16T07:44:31;91135.47;;;6.87;93.71
70046;BME280;57385;41.832;23.494;2022-12-16T07:46:10;91136.25;;;6.87;93.55
70046;BME280;57385;41.832;23.494;2022-12-16T07:47:50;91139.78;;;6.86;93.88
70046;BME280;57385;41.832;23.494;2022-12-16T07:49:29;91132.31;;;6.78;94.19
70046;BME280;57385;41.832;23.494;2022-12-16T07:51:08;91126.41;;;6.84;93.90
70046;BME280;57385;41.832;23.494;2022-12-16T07:52:54;91149.34;;;6.97;94.08
70046;BME280;57385;41.832;23.494;2022-12-16T07:54:33;91147.19;;;6.94;94.26
70046;BME280;57385;41.832;23.494;2022-12-16T07:56:14;91127.97;;;6.85;94.13
70046;BME280;57385;41.832;23.494;2022-12-16T07:57:54;91139.94;;;6.98;93.98
70046;BME280;57385;41.832;23.494;2022-12-16T07:59:34;91141.13;;;6.95;94.06
70046;BME280;57385;41.832;23.494;2022-12-16T08:01:14;91132.13;;;6.99;94.14
70046;BME280;57385;41.832;23.494;2022-12-16T08:02:53;91130.94;;;7.02;93.48
70046;BME280;57385;41.832;23.494;2022-12-16T08:04:33;91137.97;;;7.13;93.66
70046;BME280;57385;41.832;23.494;2022-12-16T08:06:12;91137.53;;;7.23;93.65
70046;BME280;57385;41.832;23.494;2022-12-16T08:07:59;91135.38;;;7.26;93.32
70046;BME280;57385;41.832;23.494;2022-12-16T08:09:38;91127.13;;;7.24;93.42
70046;BME280;57385;41.832;23.494;2022-12-16T08:11:18;91123.97;;;7.35;93.67
70046;BME280;57385;41.832;23.494;2022-12-16T08:12:58;91116.06;;;7.50;92.80
70046;BME280;57385;41.832;23.494;2022-12-16T08:14:45;91128.41;;;7.60;92.86
70046;BME280;57385;41.832;23.494;2022-12-16T08:16:24;91131.13;;;7.65;92.55
70046;BME280;57385;41.832;23.494;2022-12-16T08:18:03;91127.94;;;7.83;91.93
70046;BME280;57385;41.832;23.494;2022-12-16T08:19:43;91131.00;;;7.98;91.68
70046;BME280;57385;41.832;23.494;2022-12-16T08:21:22;91127.38;;;8.12;90.80
70046;BME280;57385;41.832;23.494;2022-12-16T08:23:01;91121.41;;;8.25;90.07
70046;BME280;57385;41.832;23.494;2022-12-16T08:24:40;91135.63;;;8.46;89.18
70046;BME280;57385;41.832;23.494;2022-12-16T08:26:20;91119.94;;;8.42;89.25
70046;BME280;57385;41.832;23.494;2022-12-16T08:27:59;91116.66;;;8.60;88.69
70046;BME280;57385;41.832;23.494;2022-12-16T08:29:39;91121.66;;;8.73;87.35
70046;BME280;57385;41.832;23.494;2022-12-16T08:31:19;91114.16;;;8.78;86.92
70046;BME280;57385;41.832;23.494;2022-12-16T08:32:58;91116.19;;;8.70;85.91